sensor_id;sensor_type;location;lat;lon;timestamp;P1;durP1;ratioP1;P2;durP2;ratioP2
71290;SDS011;59073;51.994;4.448;2024-02-14T00:01:03;6.20;;;6.20;;
71290;SDS011;59073;51.994;4.448;2024-02-14T00:03:29;6.59;;;6.59;;
71290;SDS011;59073;51.994;4.448;2024-02-14T00:05:55;6.53;;;6.53;;
71290;SDS011;59073;51.994;4.448;2024-02-14T00:08:22;6.58;;;6.58;;
71290;SDS011;59073;51.994;4.448;2024-02-14T00:10:48;6.68;;;6.68;;
71290;SDS011;59073;51.994;4.448;2024-02-14T00:13:13;6.65;;;6.65;;
71290;SDS011;59073;51.994;4.448;2024-02-14T00:15:39;6.74;;;6.74;;
71290;SDS011;59073;51.994;4.448;2024-02-14T00:18:05;6.69;;;6.69;;
71290;SDS011;59073;51.994;4.448;2024-02-14T00:20:30;7.46;;;7.46;;
71290;SDS011;59073;51.994;4.448;2024-02-14T00:22:57;6.99;;;6.99;;
71290;SDS011;59073;51.994;4.448;2024-02-14T00:25:23;6.74;;;6.74;;
71290;SDS011;59073;51.994;4.448;2024-02-14T00:27:48;6.84;;;6.84;;
71290;SDS011;59073;51.994;4.448;2024-02-14T00:30:14;6.95;;;6.95;;
71290;SDS011;59073;51.994;4.448;2024-02-14T00:32:40;7.03;;;7.03;;
71290;SDS011;59073;51.994;4.448;2024-02-14T00:35:05;7.72;;;7.72;;
71290;SDS011;59073;51.994;4.448;2024-02-14T00:37:31;7.45;;;7.45;;
71290;SDS011;59073;51.994;4.448;2024-02-14T00:39:58;7.61;;;7.61;;
71290;SDS011;59073;51.994;4.448;2024-02-14T00:42:24;7.69;;;7.69;;
71290;SDS011;59073;51.994;4.448;2024-02-14T00:44:49;7.42;;;7.42;;
71290;SDS011;59073;51.994;4.448;2024-02-14T00:47:15;7.52;;;7.52;;
71290;SDS011;59073;51.994;4.448;2024-02-14T00:49:40;7.69;;;7.69;;
71290;SDS011;59073;51.994;4.448;2024-02-14T00:52:06;7.53;;;7.53;;
71290;SDS011;59073;51.994;4.448;2024-02-14T00:54:31;7.93;;;7.93;;
71290;SDS011;59073;51.994;4.448;2024-02-14T00:56:57;8.54;;;8.54;;
71290;SDS011;59073;51.994;4.448;2024-02-14T00:59:22;7.95;;;7.95;;
71290;SDS011;59073;51.994;4.448;2024-02-14T01:01:48;8.49;;;8.49;;
71290;SDS011;59073;51.994;4.448;2024-02-14T01:04:14;8.66;;;8.66;;
71290;SDS011;59073;51.994;4.448;2024-02-14T01:06:39;8.08;;;8.08;;
71290;SDS011;59073;51.994;4.448;2024-02-14T01:09:05;7.90;;;7.90;;
71290;SDS011;59073;51.994;4.448;2024-02-14T01:11:30;7.72;;;7.72;;
71290;SDS011;59073;51.994;4.448;2024-02-14T01:13:56;7.71;;;7.71;;
71290;SDS011;59073;51.994;4.448;2024-02-14T01:16:21;7.98;;;7.98;;
71290;SDS011;59073;51.994;4.448;2024-02-14T01:18:46;7.83;;;7.83;;
71290;SDS011;59073;51.994;4.448;2024-02-14T01:21:12;8.38;;;8.38;;
71290;SDS011;59073;51.994;4.448;2024-02-14T01:23:37;8.47;;;8.47;;
71290;SDS011;59073;51.994;4.448;2024-02-14T01:26:03;8.68;;;8.68;;
71290;SDS011;59073;51.994;4.448;2024-02-14T01:28:28;8.97;;;8.97;;
71290;SDS011;59073;51.994;4.448;2024-02-14T01:30:54;9.02;;;9.02;;
71290;SDS011;59073;51.994;4.448;2024-02-14T01:33:22;9.20;;;9.20;;
71290;SDS011;59073;51.994;4.448;2024-02-14T01:35:48;9.02;;;9.02;;
71290;SDS011;59073;51.994;4.448;2024-02-14T01:38:13;9.08;;;9.08;;
71290;SDS011;59073;51.994;4.448;2024-02-14T01:40:41;9.22;;;9.22;;
71290;SDS011;59073;51.994;4.448;2024-02-14T01:43:09;9.05;;;9.05;;
71290;SDS011;59073;51.994;4.448;2024-02-14T01:45:35;9.11;;;9.11;;
71290;SDS011;59073;51.994;4.448;2024-02-14T01:48:00;8.94;;;8.94;;
71290;SDS011;59073;51.994;4.448;2024-02-14T01:50:27;8.14;;;8.14;;
71290;SDS011;59073;51.994;4.448;2024-02-14T01:52:55;7.62;;;7.62;;
71290;SDS011;59073;51.994;4.448;2024-02-14T01:55:24;7.03;;;7.03;;
71290;SDS011;59073;51.994;4.448;2024-02-14T01:57:52;6.77;;;6.77;;
71290;SDS011;59073;51.994;4.448;2024-02-14T02:00:19;6.10;;;6.10;;
71290;SDS011;59073;51.994;4.448;2024-02-14T02:02:45;6.75;;;6.75;;
71290;SDS011;59073;51.994;4.448;2024-02-14T02:05:12;6.30;;;6.30;;
71290;SDS011;59073;51.994;4.448;2024-02-14T02:07:38;5.72;;;5.72;;
71290;SDS011;59073;51.994;4.448;2024-02-14T02:10:05;5.42;;;5.42;;
71290;SDS011;59073;51.994;4.448;2024-02-14T02:12:31;5.41;;;5.41;;
71290;SDS011;59073;51.994;4.448;2024-02-14T02:14:57;5.58;;;5.58;;
71290;SDS011;59073;51.994;4.448;2024-02-14T02:17:23;5.43;;;5.43;;
71290;SDS011;59073;51.994;4.448;2024-02-14T02:19:49;5.61;;;5.61;;
71290;SDS011;59073;51.994;4.448;2024-02-14T02:22:14;5.20;;;5.20;;
71290;SDS011;59073;51.994;4.448;2024-02-14T02:24:40;5.13;;;5.13;;
71290;SDS011;59073;51.994;4.448;2024-02-14T02:27:05;5.34;;;5.34;;
71290;SDS011;59073;51.994;4.448;2024-02-14T02:29:31;5.41;;;5.41;;
71290;SDS011;59073;51.994;4.448;2024-02-14T02:31:57;5.72;;;5.72;;
71290;SDS011;59073;51.994;4.448;2024-02-14T02:34:23;5.81;;;5.81;;
71290;SDS011;59073;51.994;4.448;2024-02-14T02:36:48;5.71;;;5.71;;
71290;SDS011;59073;51.994;4.448;2024-02-14T02:39:16;5.79;;;5.79;;
71290;SDS011;59073;51.994;4.448;2024-02-14T02:41:41;5.24;;;5.24;;
71290;SDS011;59073;51.994;4.448;2024-02-14T02:44:07;5.37;;;5.37;;
71290;SDS011;59073;51.994;4.448;2024-02-14T02:46:32;5.07;;;5.07;;
71290;SDS011;59073;51.994;4.448;2024-02-14T02:48:58;4.96;;;4.96;;
71290;SDS011;59073;51.994;4.448;2024-02-14T02:51:23;4.52;;;4.52;;
71290;SDS011;59073;51.994;4.448;2024-02-14T02:53:49;5.00;;;5.00;;
71290;SDS011;59073;51.994;4.448;2024-02-14T02:56:17;4.73;;;4.73;;
71290;SDS011;59073;51.994;4.448;2024-02-14T02:58:43;4.49;;;4.49;;
71290;SDS011;59073;51.994;4.448;2024-02-14T03:01:09;4.72;;;4.72;;
71290;SDS011;59073;51.994;4.448;2024-02-14T03:03:37;4.74;;;4.74;;
71290;SDS011;59073;51.994;4.448;2024-02-14T03:06:04;4.75;;;4.70;;
71290;SDS011;59073;51.994;4.448;2024-02-14T03:08:29;4.25;;;4.24;;
71290;SDS011;59073;51.994;4.448;2024-02-14T03:10:56;4.80;;;4.71;;
71290;SDS011;59073;51.994;4.448;2024-02-14T03:13:24;4.75;;;4.64;;
71290;SDS011;59073;51.994;4.448;2024-02-14T03:15:51;4.94;;;4.80;;
71290;SDS011;59073;51.994;4.448;2024-02-14T03:18:17;5.27;;;5.11;;
71290;SDS011;59073;51.994;4.448;2024-02-14T03:20:43;5.35;;;5.22;;
71290;SDS011;59073;51.994;4.448;2024-02-14T03:23:08;4.56;;;4.56;;
71290;SDS011;59073;51.994;4.448;2024-02-14T03:25:33;4.42;;;4.42;;
71290;SDS011;59073;51.994;4.448;2024-02-14T03:28:01;4.56;;;4.55;;
71290;SDS011;59073;51.994;4.448;2024-02-14T03:30:33;4.92;;;4.85;;
71290;SDS011;59073;51.994;4.448;2024-02-14T03:32:59;4.50;;;4.45;;
71290;SDS011;59073;51.994;4.448;2024-02-14T03:35:25;4.81;;;4.69;;
71290;SDS011;59073;51.994;4.448;2024-02-14T03:37:52;5.04;;;4.88;;
71290;SDS011;59073;51.994;4.448;2024-02-14T03:40:18;4.55;;;4.50;;
71290;SDS011;59073;51.994;4.448;2024-02-14T03:42:47;4.42;;;4.33;;
71290;SDS011;59073;51.994;4.448;2024-02-14T03:45:13;4.45;;;4.39;;
71290;SDS011;59073;51.994;4.448;2024-02-14T03:47:39;5.03;;;4.84;;
71290;SDS011;59073;51.994;4.448;2024-02-14T03:50:05;4.92;;;4.69;;
71290;SDS011;59073;51.994;4.448;2024-02-14T03:52:32;4.81;;;4.59;;
71290;SDS011;59073;51.994;4.448;2024-02-14T03:54:58;4.73;;;4.59;;
71290;SDS011;59073;51.994;4.448;2024-02-14T03:57:26;4.57;;;4.43;;
71290;SDS011;59073;51.994;4.448;2024-02-14T03:59:55;4.93;;;4.72;;
71290;SDS011;59073;51.994;4.448;2024-02-14T04:02:21;4.78;;;4.65;;
71290;SDS011;59073;51.994;4.448;2024-02-14T04:04:48;5.00;;;4.86;;
71290;SDS011;59073;51.994;4.448;2024-02-14T04:07:14;5.09;;;4.88;;
71290;SDS011;59073;51.994;4.448;2024-02-14T04:09:40;4.77;;;4.58;;
71290;SDS011;59073;51.994;4.448;2024-02-14T04:12:06;4.83;;;4.60;;
71290;SDS011;59073;51.994;4.448;2024-02-14T04:14:32;4.91;;;4.72;;
71290;SDS011;59073;51.994;4.448;2024-02-14T04:16:57;4.76;;;4.57;;
71290;SDS011;59073;51.994;4.448;2024-02-14T04:19:23;4.94;;;4.72;;
71290;SDS011;59073;51.994;4.448;2024-02-14T04:21:48;4.94;;;4.67;;
71290;SDS011;59073;51.994;4.448;2024-02-14T04:24:14;4.50;;;4.35;;
71290;SDS011;59073;51.994;4.448;2024-02-14T04:26:39;4.34;;;4.26;;
71290;SDS011;59073;51.994;4.448;2024-02-14T04:29:05;4.78;;;4.69;;
71290;SDS011;59073;51.994;4.448;2024-02-14T04:31:30;4.68;;;4.53;;
71290;SDS011;59073;51.994;4.448;2024-02-14T04:33:57;4.91;;;4.72;;
71290;SDS011;59073;51.994;4.448;2024-02-14T04:36:23;4.78;;;4.68;;
71290;SDS011;59073;51.994;4.448;2024-02-14T04:38:48;5.55;;;5.32;;
71290;SDS011;59073;51.994;4.448;2024-02-14T04:41:14;5.76;;;5.45;;
71290;SDS011;59073;51.994;4.448;2024-02-14T04:43:40;5.26;;;5.04;;
71290;SDS011;59073;51.994;4.448;2024-02-14T04:46:06;4.68;;;4.63;;
71290;SDS011;59073;51.994;4.448;2024-02-14T04:48:37;4.59;;;4.56;;
71290;SDS011;59073;51.994;4.448;2024-02-14T04:51:03;4.14;;;4.11;;
71290;SDS011;59073;51.994;4.448;2024-02-14T04:53:32;4.77;;;4.67;;
71290;SDS011;59073;51.994;4.448;2024-02-14T04:55:57;5.09;;;4.87;;
71290;SDS011;59073;51.994;4.448;2024-02-14T04:58:23;4.95;;;4.72;;
71290;SDS011;59073;51.994;4.448;2024-02-14T05:00:48;5.03;;;4.81;;
71290;SDS011;59073;51.994;4.448;2024-02-14T05:03:15;4.13;;;3.99;;
71290;SDS011;59073;51.994;4.448;2024-02-14T05:05:41;4.27;;;4.18;;
71290;SDS011;59073;51.994;4.448;2024-02-14T05:08:06;3.73;;;3.63;;
71290;SDS011;59073;51.994;4.448;2024-02-14T05:10:32;3.91;;;3.84;;
71290;SDS011;59073;51.994;4.448;2024-02-14T05:12:58;3.62;;;3.62;;
71290;SDS011;59073;51.994;4.448;2024-02-14T05:15:23;3.06;;;3.06;;
71290;SDS011;59073;51.994;4.448;2024-02-14T05:17:49;3.46;;;3.45;;
71290;SDS011;59073;51.994;4.448;2024-02-14T05:20:15;3.32;;;3.31;;
71290;SDS011;59073;51.994;4.448;2024-02-14T05:22:41;3.40;;;3.35;;
71290;SDS011;59073;51.994;4.448;2024-02-14T05:25:07;3.53;;;3.47;;
71290;SDS011;59073;51.994;4.448;2024-02-14T05:27:34;3.75;;;3.69;;
71290;SDS011;59073;51.994;4.448;2024-02-14T05:30:00;3.51;;;3.43;;
71290;SDS011;59073;51.994;4.448;2024-02-14T05:32:25;3.91;;;3.89;;
71290;SDS011;59073;51.994;4.448;2024-02-14T05:34:51;4.35;;;4.34;;
71290;SDS011;59073;51.994;4.448;2024-02-14T05:37:16;4.17;;;4.17;;
71290;SDS011;59073;51.994;4.448;2024-02-14T05:39:42;4.71;;;4.71;;
71290;SDS011;59073;51.994;4.448;2024-02-14T05:42:07;5.22;;;5.22;;
71290;SDS011;59073;51.994;4.448;2024-02-14T05:44:33;5.38;;;5.38;;
71290;SDS011;59073;51.994;4.448;2024-02-14T05:46:59;5.70;;;5.70;;
71290;SDS011;59073;51.994;4.448;2024-02-14T05:49:25;6.39;;;6.39;;
71290;SDS011;59073;51.994;4.448;2024-02-14T05:51:51;6.58;;;6.58;;
71290;SDS011;59073;51.994;4.448;2024-02-14T05:54:18;6.81;;;6.81;;
71290;SDS011;59073;51.994;4.448;2024-02-14T05:56:45;7.01;;;7.01;;
71290;SDS011;59073;51.994;4.448;2024-02-14T05:59:11;7.13;;;7.13;;
71290;SDS011;59073;51.994;4.448;2024-02-14T06:01:36;6.41;;;6.41;;
71290;SDS011;59073;51.994;4.448;2024-02-14T06:04:02;6.41;;;6.41;;
71290;SDS011;59073;51.994;4.448;2024-02-14T06:06:27;6.40;;;6.40;;
71290;SDS011;59073;51.994;4.448;2024-02-14T06:08:53;6.11;;;6.11;;
71290;SDS011;59073;51.994;4.448;2024-02-14T06:11:19;6.03;;;6.03;;
71290;SDS011;59073;51.994;4.448;2024-02-14T06:13:49;5.45;;;5.45;;
71290;SDS011;59073;51.994;4.448;2024-02-14T06:16:14;5.84;;;5.84;;
71290;SDS011;59073;51.994;4.448;2024-02-14T06:18:39;5.80;;;5.80;;
71290;SDS011;59073;51.994;4.448;2024-02-14T06:21:05;5.91;;;5.91;;
71290;SDS011;59073;51.994;4.448;2024-02-14T06:23:31;5.97;;;5.97;;
71290;SDS011;59073;51.994;4.448;2024-02-14T06:25:57;6.32;;;6.32;;
71290;SDS011;59073;51.994;4.448;2024-02-14T06:28:23;7.22;;;7.22;;
71290;SDS011;59073;51.994;4.448;2024-02-14T06:30:49;7.28;;;7.28;;
71290;SDS011;59073;51.994;4.448;2024-02-14T06:33:14;7.60;;;7.60;;
71290;SDS011;59073;51.994;4.448;2024-02-14T06:35:40;7.93;;;7.93;;
71290;SDS011;59073;51.994;4.448;2024-02-14T06:38:06;7.90;;;7.90;;
71290;SDS011;59073;51.994;4.448;2024-02-14T06:40:32;7.87;;;7.87;;
71290;SDS011;59073;51.994;4.448;2024-02-14T06:42:59;7.79;;;7.79;;
71290;SDS011;59073;51.994;4.448;2024-02-14T06:45:25;8.12;;;8.12;;
71290;SDS011;59073;51.994;4.448;2024-02-14T06:47:52;8.19;;;8.19;;
71290;SDS011;59073;51.994;4.448;2024-02-14T06:50:19;7.80;;;7.80;;
71290;SDS011;59073;51.994;4.448;2024-02-14T06:52:45;8.28;;;8.28;;
71290;SDS011;59073;51.994;4.448;2024-02-14T06:55:10;8.50;;;8.50;;
71290;SDS011;59073;51.994;4.448;2024-02-14T06:57:36;7.85;;;7.85;;
71290;SDS011;59073;51.994;4.448;2024-02-14T07:00:02;7.44;;;7.44;;
71290;SDS011;59073;51.994;4.448;2024-02-14T07:02:31;7.73;;;7.73;;
71290;SDS011;59073;51.994;4.448;2024-02-14T07:04:56;8.02;;;8.02;;
71290;SDS011;59073;51.994;4.448;2024-02-14T07:07:22;8.26;;;8.26;;
71290;SDS011;59073;51.994;4.448;2024-02-14T07:09:47;7.14;;;7.14;;
71290;SDS011;59073;51.994;4.448;2024-02-14T07:12:13;7.78;;;7.78;;
71290;SDS011;59073;51.994;4.448;2024-02-14T07:14:38;7.62;;;7.62;;
71290;SDS011;59073;51.994;4.448;2024-02-14T07:17:03;7.95;;;7.95;;
71290;SDS011;59073;51.994;4.448;2024-02-14T07:19:29;7.53;;;7.53;;
71290;SDS011;59073;51.994;4.448;2024-02-14T07:21:54;7.18;;;7.18;;
71290;SDS011;59073;51.994;4.448;2024-02-14T07:24:20;7.15;;;7.15;;
71290;SDS011;59073;51.994;4.448;2024-02-14T07:26:45;7.11;;;7.11;;
71290;SDS011;59073;51.994;4.448;2024-02-14T07:29:11;7.03;;;7.03;;
71290;SDS011;59073;51.994;4.448;2024-02-14T07:31:36;7.38;;;7.38;;
71290;SDS011;59073;51.994;4.448;2024-02-14T07:34:02;6.94;;;6.94;;
71290;SDS011;59073;51.994;4.448;2024-02-14T07:36:29;6.86;;;6.86;;
71290;SDS011;59073;51.994;4.448;2024-02-14T07:38:54;6.63;;;6.63;;
71290;SDS011;59073;51.994;4.448;2024-02-14T07:41:20;6.67;;;6.67;;
71290;SDS011;59073;51.994;4.448;2024-02-14T07:43:45;6.75;;;6.75;;
71290;SDS011;59073;51.994;4.448;2024-02-14T07:46:11;7.40;;;7.40;;
71290;SDS011;59073;51.994;4.448;2024-02-14T07:48:37;6.96;;;6.96;;
71290;SDS011;59073;51.994;4.448;2024-02-14T07:51:06;6.76;;;6.76;;
71290;SDS011;59073;51.994;4.448;2024-02-14T07:53:33;6.78;;;6.78;;
71290;SDS011;59073;51.994;4.448;2024-02-14T07:55:58;6.46;;;6.46;;
71290;SDS011;59073;51.994;4.448;2024-02-14T07:58:23;5.83;;;5.83;;
71290;SDS011;59073;51.994;4.448;2024-02-14T08:00:49;5.14;;;5.14;;
71290;SDS011;59073;51.994;4.448;2024-02-14T08:03:14;4.61;;;4.61;;
71290;SDS011;59073;51.994;4.448;2024-02-14T08:05:40;4.14;;;4.14;;
71290;SDS011;59073;51.994;4.448;2024-02-14T08:08:07;3.59;;;3.59;;
71290;SDS011;59073;51.994;4.448;2024-02-14T08:10:33;3.64;;;3.64;;
71290;SDS011;59073;51.994;4.448;2024-02-14T08:12:58;3.65;;;3.65;;
71290;SDS011;59073;51.994;4.448;2024-02-14T08:15:24;3.67;;;3.67;;
71290;SDS011;59073;51.994;4.448;2024-02-14T08:17:49;3.91;;;3.91;;
71290;SDS011;59073;51.994;4.448;2024-02-14T08:20:15;4.12;;;4.12;;
71290;SDS011;59073;51.994;4.448;2024-02-14T08:22:41;5.19;;;5.19;;
71290;SDS011;59073;51.994;4.448;2024-02-14T08:25:06;6.34;;;6.34;;
71290;SDS011;59073;51.994;4.448;2024-02-14T08:27:32;7.33;;;7.33;;
71290;SDS011;59073;51.994;4.448;2024-02-14T08:29:57;7.92;;;7.92;;
71290;SDS011;59073;51.994;4.448;2024-02-14T08:32:23;7.14;;;7.14;;
71290;SDS011;59073;51.994;4.448;2024-02-14T08:34:48;7.11;;;7.11;;
71290;SDS011;59073;51.994;4.448;2024-02-14T08:37:15;8.11;;;8.11;;
71290;SDS011;59073;51.994;4.448;2024-02-14T08:39:41;7.74;;;7.74;;
71290;SDS011;59073;51.994;4.448;2024-02-14T08:42:06;7.93;;;7.93;;
71290;SDS011;59073;51.994;4.448;2024-02-14T08:44:33;7.67;;;7.67;;
71290;SDS011;59073;51.994;4.448;2024-02-14T08:46:59;6.97;;;6.97;;
71290;SDS011;59073;51.994;4.448;2024-02-14T08:49:25;7.34;;;7.34;;
71290;SDS011;59073;51.994;4.448;2024-02-14T08:51:50;7.01;;;7.01;;
71290;SDS011;59073;51.994;4.448;2024-02-14T08:54:16;7.13;;;7.13;;
71290;SDS011;59073;51.994;4.448;2024-02-14T08:56:41;7.10;;;7.10;;
71290;SDS011;59073;51.994;4.448;2024-02-14T08:59:07;6.55;;;6.55;;
71290;SDS011;59073;51.994;4.448;2024-02-14T09:01:32;7.01;;;7.01;;
71290;SDS011;59073;51.994;4.448;2024-02-14T09:03:58;6.78;;;6.78;;
71290;SDS011;59073;51.994;4.448;2024-02-14T09:06:24;6.24;;;6.24;;
71290;SDS011;59073;51.994;4.448;2024-02-14T09:08:51;6.01;;;6.01;;
71290;SDS011;59073;51.994;4.448;2024-02-14T09:11:18;5.75;;;5.75;;
71290;SDS011;59073;51.994;4.448;2024-02-14T09:13:44;5.72;;;5.71;;
71290;SDS011;59073;51.994;4.448;2024-02-14T09:16:12;5.36;;;5.36;;
71290;SDS011;59073;51.994;4.448;2024-02-14T09:18:40;5.28;;;5.28;;
71290;SDS011;59073;51.994;4.448;2024-02-14T09:21:06;4.67;;;4.67;;
71290;SDS011;59073;51.994;4.448;2024-02-14T09:23:33;4.60;;;4.60;;
71290;SDS011;59073;51.994;4.448;2024-02-14T09:25:58;4.86;;;4.86;;
71290;SDS011;59073;51.994;4.448;2024-02-14T09:28:24;4.89;;;4.89;;
71290;SDS011;59073;51.994;4.448;2024-02-14T09:30:50;4.93;;;4.93;;
71290;SDS011;59073;51.994;4.448;2024-02-14T09:33:16;5.16;;;5.16;;
71290;SDS011;59073;51.994;4.448;2024-02-14T09:35:42;5.42;;;5.42;;
71290;SDS011;59073;51.994;4.448;2024-02-14T09:38:13;5.73;;;5.73;;
71290;SDS011;59073;51.994;4.448;2024-02-14T09:40:41;5.43;;;5.43;;
71290;SDS011;59073;51.994;4.448;2024-02-14T09:43:31;5.61;;;5.61;;
71290;SDS011;59073;51.994;4.448;2024-02-14T09:45:57;5.52;;;5.52;;
71290;SDS011;59073;51.994;4.448;2024-02-14T09:48:23;5.20;;;5.20;;
71290;SDS011;59073;51.994;4.448;2024-02-14T09:50:51;5.06;;;5.06;;
71290;SDS011;59073;51.994;4.448;2024-02-14T09:53:18;4.76;;;4.76;;
71290;SDS011;59073;51.994;4.448;2024-02-14T09:55:45;4.95;;;4.95;;
71290;SDS011;59073;51.994;4.448;2024-02-14T09:58:11;5.04;;;5.04;;
71290;SDS011;59073;51.994;4.448;2024-02-14T10:00:37;4.94;;;4.94;;
71290;SDS011;59073;51.994;4.448;2024-02-14T10:03:03;4.41;;;4.41;;
71290;SDS011;59073;51.994;4.448;2024-02-14T10:05:29;4.30;;;4.30;;
71290;SDS011;59073;51.994;4.448;2024-02-14T10:07:56;4.22;;;4.22;;
71290;SDS011;59073;51.994;4.448;2024-02-14T10:10:22;4.23;;;4.23;;
71290;SDS011;59073;51.994;4.448;2024-02-14T10:12:48;3.95;;;3.95;;
71290;SDS011;59073;51.994;4.448;2024-02-14T10:15:14;3.95;;;3.95;;
71290;SDS011;59073;51.994;4.448;2024-02-14T10:17:39;3.56;;;3.56;;
71290;SDS011;59073;51.994;4.448;2024-02-14T10:20:08;3.34;;;3.34;;
71290;SDS011;59073;51.994;4.448;2024-02-14T10:22:35;2.99;;;2.99;;
71290;SDS011;59073;51.994;4.448;2024-02-14T10:25:04;2.83;;;2.83;;
71290;SDS011;59073;51.994;4.448;2024-02-14T10:27:37;2.51;;;2.51;;
71290;SDS011;59073;51.994;4.448;2024-02-14T10:30:06;2.51;;;2.51;;
71290;SDS011;59073;51.994;4.448;2024-02-14T10:32:36;2.68;;;2.68;;
71290;SDS011;59073;51.994;4.448;2024-02-14T10:35:05;3.10;;;3.10;;
71290;SDS011;59073;51.994;4.448;2024-02-14T10:37:37;3.00;;;3.00;;
71290;SDS011;59073;51.994;4.448;2024-02-14T10:40:03;3.27;;;3.27;;
71290;SDS011;59073;51.994;4.448;2024-02-14T10:42:33;3.44;;;3.44;;
71290;SDS011;59073;51.994;4.448;2024-02-14T10:44:59;3.28;;;3.28;;
71290;SDS011;59073;51.994;4.448;2024-02-14T10:47:29;3.94;;;3.94;;
71290;SDS011;59073;51.994;4.448;2024-02-14T10:49:57;3.83;;;3.83;;
71290;SDS011;59073;51.994;4.448;2024-02-14T10:52:31;4.20;;;4.20;;
71290;SDS011;59073;51.994;4.448;2024-02-14T10:54:58;4.21;;;4.21;;
71290;SDS011;59073;51.994;4.448;2024-02-14T10:57:27;4.47;;;4.47;;
71290;SDS011;59073;51.994;4.448;2024-02-14T10:59:54;4.45;;;4.45;;
71290;SDS011;59073;51.994;4.448;2024-02-14T11:02:22;4.00;;;4.00;;
71290;SDS011;59073;51.994;4.448;2024-02-14T11:04:49;4.56;;;4.56;;
71290;SDS011;59073;51.994;4.448;2024-02-14T11:07:19;3.74;;;3.74;;
71290;SDS011;59073;51.994;4.448;2024-02-14T11:09:48;3.87;;;3.87;;
71290;SDS011;59073;51.994;4.448;2024-02-14T11:12:25;3.18;;;3.18;;
71290;SDS011;59073;51.994;4.448;2024-02-14T11:14:51;3.85;;;3.85;;
71290;SDS011;59073;51.994;4.448;2024-02-14T11:17:23;3.12;;;3.12;;
71290;SDS011;59073;51.994;4.448;2024-02-14T11:19:51;2.78;;;2.78;;
71290;SDS011;59073;51.994;4.448;2024-02-14T11:22:17;2.88;;;2.88;;
71290;SDS011;59073;51.994;4.448;2024-02-14T11:24:47;3.05;;;3.05;;
71290;SDS011;59073;51.994;4.448;2024-02-14T11:27:13;3.14;;;3.14;;
71290;SDS011;59073;51.994;4.448;2024-02-14T11:29:40;3.10;;;3.10;;
71290;SDS011;59073;51.994;4.448;2024-02-14T11:32:09;2.99;;;2.99;;
71290;SDS011;59073;51.994;4.448;2024-02-14T11:34:36;2.89;;;2.89;;
71290;SDS011;59073;51.994;4.448;2024-02-14T11:37:02;2.96;;;2.96;;
71290;SDS011;59073;51.994;4.448;2024-02-14T11:39:28;2.79;;;2.79;;
71290;SDS011;59073;51.994;4.448;2024-02-14T11:41:56;2.69;;;2.69;;
71290;SDS011;59073;51.994;4.448;2024-02-14T11:44:23;2.67;;;2.67;;
71290;SDS011;59073;51.994;4.448;2024-02-14T11:46:49;2.62;;;2.62;;
71290;SDS011;59073;51.994;4.448;2024-02-14T11:49:14;2.47;;;2.47;;
71290;SDS011;59073;51.994;4.448;2024-02-14T11:51:42;2.47;;;2.47;;
71290;SDS011;59073;51.994;4.448;2024-02-14T11:54:07;2.49;;;2.49;;
71290;SDS011;59073;51.994;4.448;2024-02-14T11:56:35;2.42;;;2.42;;
71290;SDS011;59073;51.994;4.448;2024-02-14T11:59:07;2.69;;;2.69;;
71290;SDS011;59073;51.994;4.448;2024-02-14T12:01:35;2.45;;;2.45;;
71290;SDS011;59073;51.994;4.448;2024-02-14T12:04:02;2.73;;;2.73;;
71290;SDS011;59073;51.994;4.448;2024-02-14T12:06:32;2.44;;;2.44;;
71290;SDS011;59073;51.994;4.448;2024-02-14T12:09:01;2.58;;;2.58;;
71290;SDS011;59073;51.994;4.448;2024-02-14T12:11:31;2.86;;;2.86;;
71290;SDS011;59073;51.994;4.448;2024-02-14T12:14:00;2.65;;;2.65;;
71290;SDS011;59073;51.994;4.448;2024-02-14T12:16:28;2.53;;;2.53;;
71290;SDS011;59073;51.994;4.448;2024-02-14T12:19:04;2.61;;;2.61;;
71290;SDS011;59073;51.994;4.448;2024-02-14T12:21:35;2.94;;;2.94;;
71290;SDS011;59073;51.994;4.448;2024-02-14T12:24:02;2.79;;;2.79;;
71290;SDS011;59073;51.994;4.448;2024-02-14T12:26:35;2.93;;;2.93;;
71290;SDS011;59073;51.994;4.448;2024-02-14T12:29:06;2.59;;;2.59;;
71290;SDS011;59073;51.994;4.448;2024-02-14T12:31:32;3.01;;;3.01;;
71290;SDS011;59073;51.994;4.448;2024-02-14T12:34:00;3.39;;;3.39;;
71290;SDS011;59073;51.994;4.448;2024-02-14T12:36:28;3.16;;;3.16;;
71290;SDS011;59073;51.994;4.448;2024-02-14T12:38:54;3.11;;;3.11;;
71290;SDS011;59073;51.994;4.448;2024-02-14T12:41:20;2.97;;;2.97;;
71290;SDS011;59073;51.994;4.448;2024-02-14T12:43:47;3.39;;;3.39;;
71290;SDS011;59073;51.994;4.448;2024-02-14T12:46:13;3.25;;;3.25;;
71290;SDS011;59073;51.994;4.448;2024-02-14T12:48:39;3.48;;;3.48;;
71290;SDS011;59073;51.994;4.448;2024-02-14T12:51:04;3.48;;;3.48;;
71290;SDS011;59073;51.994;4.448;2024-02-14T12:53:30;3.17;;;3.17;;
71290;SDS011;59073;51.994;4.448;2024-02-14T12:55:55;3.45;;;3.45;;
71290;SDS011;59073;51.994;4.448;2024-02-14T12:58:21;3.45;;;3.45;;
71290;SDS011;59073;51.994;4.448;2024-02-14T13:00:47;3.50;;;3.50;;
71290;SDS011;59073;51.994;4.448;2024-02-14T13:03:12;3.45;;;3.45;;
71290;SDS011;59073;51.994;4.448;2024-02-14T13:05:39;3.51;;;3.51;;
71290;SDS011;59073;51.994;4.448;2024-02-14T13:08:04;4.08;;;4.08;;
71290;SDS011;59073;51.994;4.448;2024-02-14T13:10:30;4.09;;;4.09;;
71290;SDS011;59073;51.994;4.448;2024-02-14T13:12:56;3.78;;;3.78;;
71290;SDS011;59073;51.994;4.448;2024-02-14T13:15:22;3.53;;;3.53;;
71290;SDS011;59073;51.994;4.448;2024-02-14T13:17:47;3.43;;;3.43;;
71290;SDS011;59073;51.994;4.448;2024-02-14T13:20:13;3.52;;;3.52;;
71290;SDS011;59073;51.994;4.448;2024-02-14T13:22:43;3.45;;;3.45;;
71290;SDS011;59073;51.994;4.448;2024-02-14T13:25:08;3.34;;;3.34;;
71290;SDS011;59073;51.994;4.448;2024-02-14T13:27:34;3.63;;;3.63;;
71290;SDS011;59073;51.994;4.448;2024-02-14T13:30:03;3.39;;;3.39;;
71290;SDS011;59073;51.994;4.448;2024-02-14T13:32:29;3.14;;;3.14;;
71290;SDS011;59073;51.994;4.448;2024-02-14T13:34:54;2.70;;;2.70;;
71290;SDS011;59073;51.994;4.448;2024-02-14T13:37:20;2.53;;;2.53;;
71290;SDS011;59073;51.994;4.448;2024-02-14T13:39:46;2.31;;;2.31;;
71290;SDS011;59073;51.994;4.448;2024-02-14T13:42:11;2.21;;;2.21;;
71290;SDS011;59073;51.994;4.448;2024-02-14T13:44:37;2.00;;;2.00;;
71290;SDS011;59073;51.994;4.448;2024-02-14T13:47:02;1.53;;;1.53;;
71290;SDS011;59073;51.994;4.448;2024-02-14T13:49:28;1.60;;;1.60;;
71290;SDS011;59073;51.994;4.448;2024-02-14T13:51:53;1.65;;;1.65;;
71290;SDS011;59073;51.994;4.448;2024-02-14T13:54:19;1.39;;;1.39;;
71290;SDS011;59073;51.994;4.448;2024-02-14T13:56:46;1.27;;;1.27;;
71290;SDS011;59073;51.994;4.448;2024-02-14T13:59:14;1.24;;;1.24;;
71290;SDS011;59073;51.994;4.448;2024-02-14T14:01:40;1.30;;;1.30;;
71290;SDS011;59073;51.994;4.448;2024-02-14T14:04:06;1.36;;;1.36;;
71290;SDS011;59073;51.994;4.448;2024-02-14T14:06:31;1.02;;;1.02;;
71290;SDS011;59073;51.994;4.448;2024-02-14T14:08:57;1.02;;;1.02;;
71290;SDS011;59073;51.994;4.448;2024-02-14T14:11:22;0.85;;;0.85;;
71290;SDS011;59073;51.994;4.448;2024-02-14T14:13:48;0.62;;;0.62;;
71290;SDS011;59073;51.994;4.448;2024-02-14T14:16:14;0.62;;;0.62;;
71290;SDS011;59073;51.994;4.448;2024-02-14T14:18:40;0.81;;;0.81;;
71290;SDS011;59073;51.994;4.448;2024-02-14T14:21:05;0.60;;;0.60;;
71290;SDS011;59073;51.994;4.448;2024-02-14T14:23:31;0.62;;;0.62;;
71290;SDS011;59073;51.994;4.448;2024-02-14T14:25:57;0.80;;;0.80;;
71290;SDS011;59073;51.994;4.448;2024-02-14T14:28:23;0.69;;;0.69;;
71290;SDS011;59073;51.994;4.448;2024-02-14T14:30:55;0.80;;;0.80;;
71290;SDS011;59073;51.994;4.448;2024-02-14T14:33:21;0.59;;;0.59;;
71290;SDS011;59073;51.994;4.448;2024-02-14T14:35:47;0.54;;;0.54;;
71290;SDS011;59073;51.994;4.448;2024-02-14T14:38:15;0.64;;;0.64;;
71290;SDS011;59073;51.994;4.448;2024-02-14T14:40:41;0.73;;;0.73;;
71290;SDS011;59073;51.994;4.448;2024-02-14T14:43:06;0.68;;;0.68;;